Latest Weather Observations for Goulburn Airport

IDN60801

Issued at 7:32 am EDT Saturday 28 March 2015 (issued every 30 minutes, with the page automatically refreshed every 10 minutes)

About weather observations | Map of weather stations | Latest weather observations for NSW | Other Formats
Station Details ID: 070330 Name: GOULBURN AIRPORT AWS Lat: -34.81 Lon: 149.73 Height: 640.0 m
Data from the previous 72 hours. | See also: Recent months at Goulburn Airport
Date/Time
EDT
Temp
°C
App
Temp
°C
Dew
Point
Rel
Hum
%
Delta-T
°C
Wind Press
QNH
hPa
Press
MSL
hPa
Rain
since 9 am
mm
Dir
 
Spd
km/h
Gust
km/h
Spd
kts
Gust
kts
28/07:30am 2.2 -0.3 1.3 94 0.4 NNW 4 7 2 4 1023.8 1021.9 0.0
28/07:00am 1.7 -1.9 0.4 91 0.5 N 9 13 5 7 1023.5 1021.6 0.0
28/06:30am 2.6 0.8 1.4 92 0.5 CALM 0 0 0 0 1023.0 1021.1 0.0
28/05:30am 2.1 -1.1 0.9 92 0.5 N 7 9 4 5 1022.4 1020.5 0.0
28/05:00am 2.3 -0.7 1.1 92 0.5 NE 6 7 3 4 1022.2 1020.3 0.0
28/04:30am 2.1 -1.1 0.6 90 0.6 N 7 9 4 5 1022.1 1020.2 0.0
28/04:00am 3.6 1.1 1.6 87 0.8 NNW 4 9 2 5 1022.1 1020.2 0.0
28/03:30am 3.5 0.4 1.2 85 0.9 NNE 7 11 4 6 1022.2 1020.3 0.0
28/03:00am 3.6 0.5 1.2 84 1.0 NNW 7 9 4 5 1022.5 1020.6 0.0
28/02:30am 5.3 3.4 2.7 83 1.1 N 2 6 1 3 1022.7 1020.8 0.0
28/02:00am 6.2 4.4 3.2 81 1.3 NNE 2 7 1 4 1022.7 1020.8 0.0
28/01:30am 7.2 5.4 3.6 78 1.6 ENE 2 9 1 5 1022.8 1020.9 0.0
28/01:00am 7.1 4.0 3.5 78 1.6 WNW 9 13 5 7 1022.7 1020.8 0.0
28/12:30am 5.7 3.0 2.7 81 1.3 E 6 9 3 5 1023.0 1021.1 0.0
 
Date/Time
EDT
Temp
°C
App
Temp
°C
Dew
Point
Rel
Hum
%
Delta-T
°C
Wind Press
QNH
hPa
Press
MSL
hPa
Rain
since 9 am
mm
Dir
 
Spd
km/h
Gust
km/h
Spd
kts
Gust
kts
27/11:30pm 7.0 3.8 3.3 77 1.6 NW 9 13 5 7 1023.1 1021.2 0.0
27/11:00pm 8.1 4.2 3.6 73 2.0 NW 13 17 7 9 1022.9 1021.0 0.0
27/10:30pm 8.3 5.6 3.9 74 2.0 NW 7 17 4 9 1022.9 1021.0 0.0
27/10:00pm 9.9 6.6 4.5 69 2.5 NE 11 17 6 9 1022.7 1020.8 0.0
27/09:30pm 9.6 4.7 4.0 68 2.6 W 19 20 10 11 1022.1 1020.2 0.0
27/09:00pm 9.3 5.1 3.7 68 2.5 W 15 17 8 9 1022.0 1020.0 0.0
27/08:30pm 12.1 9.3 3.3 55 4.0 NW 7 9 4 5 1021.8 1019.8 0.0
27/08:00pm 12.2 7.1 3.9 57 3.9 W 20 28 11 15 1020.9 1019.0 0.0
27/07:30pm 12.9 9.0 3.3 52 4.4 W 13 24 7 13 1021.0 1019.1 0.0
27/07:00pm 14.0 8.4 3.2 48 5.0 W 22 35 12 19 1020.4 1018.4 0.0
27/06:40pm 15.0 7.5 3.2 45 5.5 W 32 50 17 27 1020.2 1018.2 0.0
27/06:30pm 15.4 6.5 3.2 44 5.7 W 39 52 21 28 1019.9 1017.9 0.0
27/06:00pm 16.0 7.4 2.8 41 6.2 W 37 50 20 27 1019.7 1017.8 0.0
27/05:30pm 16.6 9.0 2.6 39 6.6 W 32 44 17 24 1019.7 1017.8 0.0
27/05:00pm 17.0 7.3 2.6 38 6.8 W 43 57 23 31 1019.2 1017.2 0.0
27/04:30pm 17.3 7.9 2.1 36 7.1 W 41 50 22 27 1019.1 1017.1 0.0
27/04:08pm 17.2 8.4 3.5 40 6.6 WNW 39 57 21 31 1019.4 1017.5 0.0
27/04:00pm 17.5 9.9 3.8 40 6.6 WNW 33 44 18 24 1019.6 1017.7 0.0
27/03:47pm 18.7 11.4 4.5 39 7.0 W 32 50 17 27 1019.9 1017.9 0.0
27/03:30pm 17.6 10.0 3.9 40 6.6 W 33 50 18 27 1019.9 1017.9 0.0
27/03:00pm 17.8 10.4 4.0 40 6.7 W 32 44 17 24 1020.1 1018.1 0.0
27/02:30pm 17.7 10.4 4.3 41 6.6 WNW 32 50 17 27 1020.5 1018.5 0.0
27/02:01pm 17.3 10.0 4.6 43 6.2 WNW 32 50 17 27 1020.5 1018.5 0.0
27/02:00pm 16.7 9.1 3.7 42 6.2 WNW 33 50 18 27 1020.3 1018.3 0.0
27/01:30pm 16.2 7.3 3.3 42 6.1 W 39 54 21 29 1021.1 1019.2 0.0
27/01:00pm 16.6 8.0 4.6 45 5.8 W 39 57 21 31 1021.3 1019.4 0.0
27/12:36pm 15.6 7.6 4.0 46 5.6 W 35 54 19 29 1021.6 1019.6 0.0
27/12:30pm 16.0 7.8 5.0 48 5.4 W 37 48 20 26 1021.8 1019.8 0.0
27/12:00pm 15.3 7.5 4.7 49 5.1 W 35 50 19 27 1021.7 1019.7 0.0
27/11:30am 13.9 6.4 4.2 52 4.6 W 33 44 18 24 1022.0 1020.0 0.0
27/11:00am 13.6 7.2 5.0 56 4.1 W 28 39 15 21 1022.5 1020.6 0.0
27/10:30am 12.8 6.3 4.5 57 3.9 W 28 39 15 21 1022.6 1020.7 0.0
27/10:00am 11.6 4.0 3.9 59 3.6 W 33 44 18 24 1022.5 1020.6 0.0
27/09:30am 10.5 3.8 3.5 62 3.2 WNW 28 35 15 19 1022.4 1020.5 0.0
27/09:00am 9.4 1.8 2.7 63 3.0 WNW 32 43 17 23 1022.5 1020.6 0.0
27/08:30am 8.8 2.3 2.6 65 2.7 WNW 26 33 14 18 1022.3 1020.4 0.0
27/08:00am 7.6 1.8 2.1 68 2.4 WNW 22 28 12 15 1022.0 1020.0 0.0
27/07:30am 6.5 0.9 1.4 70 2.1 WNW 20 26 11 14 1021.7 1019.7 0.0
27/07:00am 6.2 0.5 0.7 68 2.2 WNW 20 26 11 14 1021.3 1019.4 0.0
27/06:30am 6.6 0.9 0.7 66 2.4 WNW 20 24 11 13 1021.1 1019.2 0.0
27/06:00am 6.4 0.9 0.7 67 2.3 WNW 19 24 10 13 1021.0 1019.1 0.0
27/05:30am 5.4 0.6 0.2 69 2.1 WNW 15 17 8 9 1020.8 1018.9 0.0
27/05:00am 6.2 1.8 0.1 65 2.5 W 13 19 7 10 1020.7 1018.8 0.0
27/04:30am 7.2 2.7 0.0 60 2.9 W 13 17 7 9 1020.9 1019.0 0.0
27/04:00am 7.3 2.8 -0.2 59 3.0 W 13 17 7 9 1020.9 1019.0 0.0
27/03:30am 7.4 3.6 -0.5 57 3.2 WSW 9 13 5 7 1021.1 1019.2 0.0
27/03:00am 7.6 3.5 -0.4 57 3.2 W 11 15 6 8 1021.0 1019.1 0.0
27/02:30am 7.5 3.3 -0.7 56 3.3 WNW 11 17 6 9 1021.2 1019.3 0.0
27/02:00am 7.7 3.1 -0.8 55 3.4 W 13 19 7 10 1021.2 1019.3 0.0
27/01:30am 7.4 2.8 -0.8 56 3.3 W 13 17 7 9 1021.4 1019.5 0.0
27/01:00am 7.6 3.1 -0.6 56 3.3 W 13 19 7 10 1021.7 1019.7 0.0
27/12:30am 7.8 2.5 -0.9 54 3.5 W 17 22 9 12 1021.7 1019.7 0.0
27/12:00am 8.6 3.3 -0.7 52 3.8 W 17 26 9 14 1021.7 1019.7 0.0
 
Date/Time
EDT
Temp
°C
App
Temp
°C
Dew
Point
Rel
Hum
%
Delta-T
°C
Wind Press
QNH
hPa
Press
MSL
hPa
Rain
since 9 am
mm
Dir
 
Spd
km/h
Gust
km/h
Spd
kts
Gust
kts
26/11:30pm 7.5 3.7 -0.5 57 3.2 W 9 13 5 7 1021.7 1019.7 0.0
26/11:00pm 7.2 3.0 -0.7 57 3.1 WNW 11 13 6 7 1021.7 1019.7 0.0
26/10:30pm 8.3 4.1 -1.0 52 3.7 WNW 11 13 6 7 1021.8 1019.8 0.0
26/10:00pm 8.1 6.0 -0.6 54 3.5 CALM 0 0 0 0 1021.8 1019.8 0.0
26/09:30pm 9.2 5.4 -0.9 49 4.1 W 9 15 5 8 1021.7 1019.7 0.0
26/09:00pm 9.8 6.0 -1.0 47 4.4 WSW 9 13 5 7 1021.4 1019.5 0.0
26/08:30pm 10.3 5.3 -1.1 45 4.7 W 15 20 8 11 1020.9 1019.0 0.0
26/08:00pm 11.2 5.2 -1.5 41 5.2 W 20 28 11 15 1020.6 1018.6 0.0
26/07:30pm 11.9 6.1 -1.6 39 5.5 WSW 19 30 10 16 1020.2 1018.2 0.0
26/07:00pm 13.2 6.8 -1.9 35 6.2 W 22 37 12 20 1019.6 1017.7 0.0
26/06:30pm 14.8 6.9 -1.3 33 6.9 W 30 44 16 24 1019.3 1017.4 0.0
26/06:00pm 15.9 7.0 0.9 36 6.7 W 37 50 20 27 1019.0 1017.0 0.0
26/05:40pm 16.7 8.4 2.3 38 6.7 W 35 54 19 29 1018.8 1016.8 0.0
26/05:30pm 16.8 7.9 2.8 39 6.6 WNW 39 56 21 30 1018.5 1016.5 0.0
26/05:21pm 17.1 8.6 3.1 39 6.7 WNW 37 56 20 30 1018.4 1016.4 0.0
26/05:00pm 17.6 8.0 3.5 39 6.8 WNW 43 56 23 30 1017.9 1016.0 0.0
26/04:30pm 17.9 8.6 3.0 37 7.1 W 41 57 22 31 1017.8 1015.8 0.0
26/04:00pm 19.0 9.4 3.6 36 7.5 W 43 61 23 33 1017.6 1015.6 0.0
26/03:36pm 19.0 9.6 2.4 33 7.9 W 41 65 22 35 1017.4 1015.4 0.0
26/03:30pm 18.9 9.6 3.1 35 7.6 WNW 41 57 22 31 1017.5 1015.5 0.0
26/03:23pm 19.1 10.1 2.5 33 7.9 WNW 39 50 21 27 1017.4 1015.4 0.0
26/03:13pm 19.0 9.4 3.2 35 7.6 W 43 61 23 33 1017.6 1015.6 0.0
26/03:00pm 19.4 9.8 3.6 35 7.7 WNW 43 59 23 32 1017.5 1015.5 0.0
26/02:56pm 19.3 10.1 3.5 35 7.7 WNW 41 59 22 32 1017.5 1015.5 0.0
26/02:30pm 19.0 9.7 2.8 34 7.8 W 41 56 22 30 1017.7 1015.7 0.0
26/02:00pm 18.3 9.2 3.8 38 7.0 WNW 41 52 22 28 1017.9 1016.0 0.0
26/01:30pm 18.3 10.2 3.4 37 7.2 WNW 35 54 19 29 1018.4 1016.4 0.0
26/01:26pm 18.6 10.9 3.6 37 7.3 WNW 33 54 18 29 1018.3 1016.3 0.0
26/01:08pm 18.0 9.6 3.5 38 7.0 WNW 37 57 20 31 1018.5 1016.5 0.0
26/01:04pm 17.8 9.7 3.3 38 7.0 W 35 57 19 31 1018.5 1016.5 0.0
26/01:00pm 18.8 10.6 4.9 40 6.9 W 37 52 20 28 1018.7 1016.7 0.0
26/12:30pm 17.2 9.6 3.8 41 6.5 WNW 33 46 18 25 1019.0 1017.0 0.0
26/12:16pm 17.0 9.2 3.0 39 6.6 WNW 33 52 18 28 1019.2 1017.2 0.0
26/12:00pm 16.8 9.0 3.1 40 6.5 W 33 44 18 24 1019.3 1017.4 0.0
26/11:37am 16.4 9.2 2.8 40 6.4 WNW 30 52 16 28 1019.3 1017.4 0.0
26/11:30am 16.4 9.7 3.8 43 6.0 WNW 28 41 15 22 1019.2 1017.2 0.0
26/11:09am 15.6 8.8 3.1 43 5.9 WNW 28 46 15 25 1019.3 1017.4 0.0
26/11:00am 15.2 8.2 4.0 47 5.3 WNW 30 39 16 21 1019.3 1017.4 0.0
26/10:30am 15.1 7.5 3.0 44 5.7 W 32 43 17 23 1019.4 1017.5 0.0
26/10:00am 14.2 7.5 3.7 49 4.9 WNW 28 37 15 20 1019.4 1017.5 0.0
26/09:30am 13.2 8.2 4.4 55 4.2 WNW 20 30 11 16 1019.2 1017.2 0.0
26/09:00am 11.8 7.6 5.9 67 2.9 WNW 17 24 9 13 1019.2 1017.2 0.0
26/08:30am 10.9 7.1 5.7 70 2.5 NW 15 22 8 12 1019.0 1017.0 0.0
26/08:00am 9.3 6.8 6.6 83 1.3 NW 9 13 5 7 1018.8 1016.8 0.0
26/07:30am 7.7 3.8 5.2 84 1.2 NW 15 17 8 9 1018.7 1016.7 0.0
26/07:00am 7.7 3.3 4.8 82 1.3 NW 17 19 9 10 1018.6 1016.6 0.0
26/06:30am 7.8 3.5 5.1 83 1.2 NW 17 17 9 9 1018.5 1016.5 0.0
26/06:00am 7.6 3.6 5.1 84 1.1 NW 15 17 8 9 1018.3 1016.3 0.0
26/05:30am 8.0 4.2 5.8 86 1.0 NNW 15 15 8 8 1018.1 1016.2 0.0
26/05:00am 8.1 4.7 5.7 85 1.1 NNW 13 15 7 8 1017.8 1015.8 0.0
26/04:30am 8.4 5.0 5.9 84 1.2 NW 13 15 7 8 1017.8 1015.8 0.0
26/04:00am 8.8 5.6 6.8 87 1.0 NNW 13 15 7 8 1017.8 1015.8 0.0
26/03:30am 9.5 6.5 7.9 90 0.8 NW 13 15 7 8 1017.8 1015.8 0.0
26/03:00am 10.1 7.5 9.2 94 0.5 NNW 13 19 7 10 1017.8 1015.8 0.0
26/02:30am 10.6 8.1 9.7 94 0.5 NW 13 15 7 8 1018.1 1016.2 0.0
26/02:00am 10.1 7.5 9.2 94 0.5 N 13 17 7 9 1018.0 1016.1 0.0
26/01:30am 10.7 9.4 9.9 95 0.4 N 7 13 4 7 1018.3 1016.3 0.0
26/01:00am 10.8 9.4 9.6 92 0.6 N 7 9 4 5 1018.5 1016.5 0.0
26/12:30am 11.4 10.0 9.5 88 1.0 NW 7 9 4 5 1018.5 1016.5 0.0
26/12:00am 12.8 11.1 11.2 90 0.9 N 11 15 6 8 1018.4 1016.4 0.0
 
Date/Time
EDT
Temp
°C
App
Temp
°C
Dew
Point
Rel
Hum
%
Delta-T
°C
Wind Press
QNH
hPa
Press
MSL
hPa
Rain
since 9 am
mm
Dir
 
Spd
km/h
Gust
km/h
Spd
kts
Gust
kts
25/11:30pm 12.6 11.7 11.2 91 0.8 NW 7 9 4 5 1018.6 1016.6 0.0
25/11:00pm 12.5 11.4 10.7 89 1.0 NE 7 11 4 6 1018.7 1016.7 0.0
25/10:30pm 12.7 10.9 10.8 88 1.0 NE 11 13 6 7 1018.8 1016.8 0.0
25/10:00pm 13.0 10.9 11.1 88 1.0 ENE 13 19 7 10 1019.0 1017.0 0.0
25/09:30pm 13.1 11.3 11.0 87 1.1 ENE 11 15 6 8 1019.1 1017.1 0.0
25/09:10pm 13.2 10.6 10.7 85 1.4 ENE 15 19 8 10 1018.8 1016.8 0.0
25/09:00pm 13.4 10.9 10.9 85 1.4 ENE 15 20 8 11 1018.7 1016.7 0.0
25/08:30pm 13.8 10.8 10.6 81 1.7 ENE 17 24 9 13 1018.5 1016.5 0.0
25/08:00pm 13.9 11.6 10.3 79 1.9 ENE 13 20 7 11 1018.1 1016.2 0.0
25/07:54pm 14.0 11.6 10.2 78 2.0 ENE 13 22 7 12 1018.1 1016.2 0.0
25/07:30pm 14.3 11.6 10.3 77 2.2 ENE 15 19 8 10 1017.9 1016.0 0.0
25/07:00pm 15.4 12.3 10.4 72 2.7 ENE 17 26 9 14 1017.3 1015.3 0.0
25/06:30pm 16.7 13.0 10.1 65 3.6 ENE 20 28 11 15 1017.2 1015.2 0.0
25/06:00pm 18.0 14.3 10.1 60 4.3 E 20 28 11 15 1016.9 1014.9 0.0
25/05:30pm 18.7 14.9 9.8 56 4.9 ENE 20 30 11 16 1016.6 1014.6 0.0
25/05:00pm 18.9 15.6 9.4 54 5.2 ENE 17 26 9 14 1016.7 1014.7 0.0
25/04:30pm 19.4 15.9 8.7 50 5.8 E 17 24 9 13 1016.7 1014.7 0.0
25/04:00pm 20.1 18.0 8.1 46 6.4 N 9 17 5 9 1016.9 1014.9 0.0
25/03:30pm 20.4 17.5 8.1 45 6.6 ENE 13 20 7 11 1017.0 1015.0 0.0
25/03:00pm 20.2 17.2 7.9 45 6.6 E 13 22 7 12 1017.1 1015.1 0.0
25/02:30pm 19.4 16.4 7.8 47 6.1 ENE 13 22 7 12 1017.5 1015.5 0.0
25/02:00pm 19.3 17.1 9.2 52 5.5 NNE 11 19 6 10 1017.6 1015.6 0.0
25/01:30pm 17.4 14.4 7.5 52 5.2 NE 13 22 7 12 1018.4 1016.4 0.0
25/01:00pm 18.3 15.6 9.1 55 5.0 ENE 13 26 7 14 1018.4 1016.4 0.0
25/12:30pm 18.5 15.8 10.3 59 4.5 ENE 15 20 8 11 1018.7 1016.7 0.0
25/12:00pm 17.7 15.9 9.6 59 4.4 ENE 9 17 5 9 1018.9 1016.9 0.0
25/11:30am 16.8 13.6 8.5 58 4.4 E 15 22 8 12 1018.6 1016.6 0.0
25/11:00am 15.6 11.6 8.1 61 3.9 E 19 28 10 15 1018.6 1016.6 0.0
25/10:30am 16.0 12.5 8.7 62 3.9 SSE 17 24 9 13 1018.4 1016.4 0.0
25/10:00am 15.4 11.4 8.4 63 3.7 ESE 19 24 10 13 1018.6 1016.6 0.0
25/09:30am 14.6 11.8 8.5 67 3.2 SE 13 22 7 12 1018.9 1016.9 0.0
25/09:00am 13.7 11.6 8.3 70 2.8 SSE 9 11 5 6 1018.9 1016.9 9.8
25/08:30am 13.4 12.3 8.5 72 2.5 SE 4 7 2 4 1019.0 1017.0 9.8
25/08:00am 12.0 10.8 9.7 86 1.2 E 6 7 3 4 1018.7 1016.7 9.8

Other Formats:

Comma delimited format used in spreadsheet applications
http://www.bom.gov.au/fwo/IDN60801/IDN60801.95716.axf

JavaScript Object Notation format (JSON) in row-major order
http://www.bom.gov.au/fwo/IDN60801/IDN60801.95716.json